createdAt,value
2022-11-18T00:00:40.502Z,64.78
2022-11-18T00:03:27.843Z,64.83
2022-11-18T00:06:16.684Z,64.83
2022-11-18T00:09:04.259Z,64.70
2022-11-18T00:12:10.281Z,64.71
2022-11-18T00:14:57.703Z,64.80
2022-11-18T00:17:45.039Z,64.77
2022-11-18T00:20:34.190Z,64.81
2022-11-18T00:23:21.504Z,64.79
2022-11-18T00:26:13.004Z,64.55
2022-11-18T00:29:00.389Z,64.67
2022-11-18T00:31:47.991Z,64.75
2022-11-18T00:34:35.335Z,64.71
2022-11-18T00:37:22.689Z,64.85
2022-11-18T00:40:10.377Z,64.70
2022-11-18T00:42:57.692Z,64.76
2022-11-18T00:45:45.040Z,64.66
2022-11-18T00:48:32.402Z,64.70
2022-11-18T00:51:19.854Z,64.77
2022-11-18T00:54:07.280Z,64.66
2022-11-18T00:56:54.632Z,64.71
2022-11-18T00:59:41.952Z,64.65
2022-11-18T01:02:29.332Z,64.64
2022-11-18T01:05:16.776Z,64.85
2022-11-18T01:08:04.593Z,64.75
2022-11-18T01:10:52.422Z,64.73
2022-11-18T01:13:39.768Z,64.72
2022-11-18T01:16:28.014Z,64.90
2022-11-18T01:19:15.689Z,64.84
2022-11-18T01:22:03.550Z,64.82
2022-11-18T01:24:51.066Z,64.69
2022-11-18T01:27:38.430Z,64.77
2022-11-18T01:30:25.851Z,64.64
2022-11-18T01:33:13.389Z,64.71
2022-11-18T01:36:00.742Z,64.46
2022-11-18T01:38:48.588Z,64.49
2022-11-18T01:41:35.970Z,64.58
2022-11-18T01:44:41.881Z,64.65
2022-11-18T01:47:31.821Z,64.49
2022-11-18T01:50:20.683Z,64.77
2022-11-18T01:53:11.065Z,64.76
2022-11-18T01:56:00.656Z,64.56
2022-11-18T01:58:59.295Z,64.52
2022-11-18T02:01:47.288Z,64.76
2022-11-18T02:04:34.878Z,64.79
2022-11-18T02:07:22.712Z,64.96
2022-11-18T02:10:17.080Z,64.75
2022-11-18T02:13:04.746Z,64.83
2022-11-18T02:16:15.972Z,64.75
2022-11-18T02:19:09.776Z,64.74
2022-11-18T02:22:00.354Z,64.68
2022-11-18T02:24:47.796Z,64.70
2022-11-18T02:27:44.322Z,64.66
2022-11-18T02:30:36.857Z,64.68
2022-11-18T02:33:28.486Z,64.72
2022-11-18T02:36:15.965Z,64.62
2022-11-18T02:39:05.421Z,64.77
2022-11-18T02:41:54.452Z,64.70
2022-11-18T02:44:44.171Z,64.70
2022-11-18T02:47:33.416Z,64.70
2022-11-18T02:50:23.339Z,64.56
2022-11-18T02:53:13.334Z,64.64
2022-11-18T02:56:01.915Z,64.46
2022-11-18T02:58:49.402Z,64.57
2022-11-18T03:01:37.129Z,64.28
2022-11-18T03:04:26.008Z,64.34
2022-11-18T03:07:19.036Z,64.43
2022-11-18T03:10:06.757Z,64.56
2022-11-18T03:13:01.579Z,64.51
2022-11-18T03:15:59.138Z,64.42
2022-11-18T03:18:49.667Z,64.36
2022-11-18T03:21:43.831Z,64.45
2022-11-18T03:24:33.684Z,64.67
2022-11-18T03:27:26.514Z,64.53
2022-11-18T03:30:16.783Z,64.39
2022-11-18T03:33:08.636Z,64.54
2022-11-18T03:35:56.930Z,64.63
2022-11-18T03:38:47.420Z,64.58
2022-11-18T03:41:38.198Z,64.52
2022-11-18T03:44:29.187Z,64.67
2022-11-18T03:47:20.132Z,64.57
2022-11-18T03:50:33.973Z,64.63
2022-11-18T03:53:23.347Z,64.80
2022-11-18T03:56:17.525Z,64.66
2022-11-18T03:59:10.117Z,64.72
2022-11-18T04:01:59.967Z,64.55
2022-11-18T04:04:49.010Z,64.66
2022-11-18T04:07:49.955Z,64.73
2022-11-18T04:10:37.304Z,64.75
2022-11-18T04:13:27.125Z,64.60
2022-11-18T04:16:14.447Z,64.56
2022-11-18T04:19:06.216Z,64.49
2022-11-18T04:21:53.960Z,64.60
2022-11-18T04:24:41.601Z,64.75
2022-11-18T04:27:29.036Z,64.68
2022-11-18T04:30:16.623Z,64.64
2022-11-18T04:33:05.185Z,64.78
2022-11-18T04:35:52.567Z,64.82
2022-11-18T04:38:39.903Z,64.60
2022-11-18T04:41:47.409Z,64.70
2022-11-18T04:44:35.224Z,64.66
2022-11-18T04:47:23.021Z,64.77
2022-11-18T04:50:10.793Z,64.66
2022-11-18T04:52:58.663Z,64.56
2022-11-18T04:55:46.289Z,64.54
2022-11-18T04:58:34.106Z,64.67
2022-11-18T05:01:22.197Z,64.52
2022-11-18T05:04:12.574Z,64.58
2022-11-18T05:07:01.037Z,64.67
2022-11-18T05:09:48.873Z,64.65
2022-11-18T05:12:52.665Z,64.56
2022-11-18T05:15:40.505Z,64.66
2022-11-18T05:18:28.063Z,64.59
2022-11-18T05:21:15.825Z,64.64
2022-11-18T05:24:04.148Z,64.55
2022-11-18T05:26:52.559Z,64.68
2022-11-18T05:29:40.395Z,64.45
2022-11-18T05:32:28.247Z,64.38
2022-11-18T05:35:16.224Z,64.33
2022-11-18T05:38:03.953Z,64.33
2022-11-18T05:40:51.703Z,64.31
2022-11-18T05:43:39.316Z,64.35
2022-11-18T05:46:27.382Z,64.29
2022-11-18T05:49:15.256Z,64.29
2022-11-18T05:52:03.433Z,64.48
2022-11-18T05:54:51.892Z,64.07
2022-11-18T05:57:39.498Z,64.29
2022-11-18T06:00:27.811Z,64.15
2022-11-18T06:03:27.550Z,64.07
2022-11-18T06:06:20.543Z,64.25
2022-11-18T06:09:09.039Z,64.38
2022-11-18T06:11:59.288Z,64.28
2022-11-18T06:14:50.220Z,64.25
2022-11-18T06:17:41.451Z,64.30
2022-11-18T06:20:29.588Z,64.05
2022-11-18T06:23:17.576Z,64.24
2022-11-18T06:26:05.475Z,64.12
2022-11-18T06:28:53.224Z,63.82
2022-11-18T06:31:40.849Z,63.97
2022-11-18T06:34:28.499Z,63.77
2022-11-18T06:37:17.433Z,64.17
2022-11-18T06:40:05.351Z,63.96
2022-11-18T06:43:11.618Z,63.98
2022-11-18T06:46:18.442Z,63.95
2022-11-18T06:49:06.081Z,63.73
2022-11-18T06:51:54.276Z,63.84
2022-11-18T06:54:41.972Z,63.60
2022-11-18T06:57:29.517Z,63.86
2022-11-18T07:00:17.510Z,63.77
2022-11-18T07:03:05.338Z,63.65
2022-11-18T07:05:53.024Z,63.80
2022-11-18T07:08:41.372Z,63.66
2022-11-18T07:11:29.207Z,63.54
2022-11-18T07:14:16.867Z,63.59
2022-11-18T07:17:04.452Z,63.60
2022-11-18T07:19:52.257Z,63.35
2022-11-18T07:22:39.922Z,63.15
2022-11-18T07:25:27.529Z,63.60
2022-11-18T07:28:15.346Z,63.44
2022-11-18T07:31:03.665Z,64.04
2022-11-18T07:33:54.802Z,64.29
2022-11-18T07:36:43.362Z,64.54
2022-11-18T07:39:30.874Z,64.43
2022-11-18T07:42:18.617Z,64.29
2022-11-18T07:45:06.491Z,64.35
2022-11-18T07:47:54.103Z,64.50
2022-11-18T07:50:46.854Z,64.33
2022-11-18T07:53:35.226Z,64.22
2022-11-18T07:56:23.532Z,64.27
2022-11-18T07:59:11.244Z,64.17
2022-11-18T08:02:00.186Z,63.90
2022-11-18T08:04:47.910Z,64.11
2022-11-18T08:07:35.861Z,64.20
2022-11-18T08:10:24.930Z,63.98
2022-11-18T08:13:12.514Z,63.91
2022-11-18T08:16:00.162Z,63.85
2022-11-18T08:18:47.823Z,63.98
2022-11-18T08:21:35.468Z,63.72
2022-11-18T08:24:23.071Z,63.77
2022-11-18T08:27:11.675Z,63.63
2022-11-18T08:29:59.217Z,63.42
2022-11-18T08:32:46.987Z,63.68
2022-11-18T08:35:34.711Z,63.95
2022-11-18T08:38:22.445Z,63.60
2022-11-18T08:41:14.670Z,63.55
2022-11-18T08:44:03.046Z,63.55
2022-11-18T08:46:51.126Z,63.65
2022-11-18T08:49:38.746Z,63.78
2022-11-18T08:52:26.624Z,63.63
2022-11-18T08:55:14.277Z,63.11
2022-11-18T08:58:01.750Z,63.48
2022-11-18T09:00:49.869Z,63.08
2022-11-18T09:03:37.725Z,62.99
2022-11-18T09:06:25.374Z,62.93
2022-11-18T09:09:12.894Z,63.17
2022-11-18T09:12:00.493Z,63.17
2022-11-18T09:17:58.906Z,62.95
2022-11-18T09:20:54.156Z,62.94
2022-11-18T09:23:41.611Z,63.21
2022-11-18T09:26:29.096Z,63.53
2022-11-18T09:29:16.757Z,63.75
2022-11-18T09:32:04.498Z,63.84
2022-11-18T09:34:52.009Z,64.08
2022-11-18T09:37:39.657Z,64.14
2022-11-18T09:40:27.992Z,63.90
2022-11-18T09:43:34.501Z,63.69
2022-11-18T09:46:40.950Z,63.95
2022-11-18T09:49:39.119Z,63.96
2022-11-18T09:52:36.177Z,63.57
2022-11-18T09:55:24.439Z,63.60
2022-11-18T09:58:32.289Z,64.07
2022-11-18T10:01:20.928Z,63.99
2022-11-18T10:04:16.634Z,63.91
2022-11-18T10:07:08.938Z,63.84
2022-11-18T10:09:57.309Z,63.79
2022-11-18T10:12:49.840Z,63.57
2022-11-18T10:15:39.810Z,63.79
2022-11-18T10:18:52.756Z,63.78
2022-11-18T10:21:44.568Z,63.95
2022-11-18T10:24:43.097Z,63.99
2022-11-18T10:27:35.796Z,64.05
2022-11-18T10:30:24.465Z,63.94
2022-11-18T10:33:23.394Z,63.78
2022-11-18T10:36:17.190Z,63.99
2022-11-18T10:39:08.854Z,63.76
2022-11-18T10:41:58.666Z,63.90
2022-11-18T10:44:46.713Z,63.65
2022-11-18T10:47:34.333Z,63.92
2022-11-18T10:50:35.730Z,63.81
2022-11-18T10:53:49.380Z,63.66
2022-11-18T10:56:46.082Z,64.12
2022-11-18T10:59:40.243Z,64.14
2022-11-18T11:02:31.200Z,64.05
2022-11-18T11:05:25.450Z,64.16
2022-11-18T11:08:36.880Z,64.54
2022-11-18T11:11:30.131Z,64.51
2022-11-18T11:14:21.622Z,64.40
2022-11-18T11:17:12.587Z,64.34
2022-11-18T11:20:18.759Z,64.15
2022-11-18T11:23:10.532Z,64.06
2022-11-18T11:38:33.874Z,64.11
2022-11-18T11:41:45.783Z,64.00
2022-11-18T11:44:39.548Z,64.19
2022-11-18T11:52:04.550Z,64.27
2022-11-18T11:55:31.172Z,64.54
2022-11-18T12:03:10.265Z,64.49
2022-11-18T12:05:57.858Z,64.62
2022-11-18T12:09:08.493Z,64.54
2022-11-18T12:12:01.726Z,64.31
2022-11-18T12:14:54.020Z,64.54
2022-11-18T12:17:46.652Z,64.40
2022-11-18T12:20:39.954Z,64.41
2022-11-18T12:23:28.324Z,64.47
2022-11-18T12:26:33.616Z,64.46
2022-11-18T12:29:21.344Z,64.71
2022-11-18T12:32:27.615Z,64.85
2022-11-18T12:35:15.001Z,65.04
2022-11-18T12:38:02.984Z,64.91
2022-11-18T12:40:53.059Z,64.93
2022-11-18T12:43:47.002Z,64.85
2022-11-18T12:46:34.449Z,64.64
2022-11-18T12:49:22.061Z,64.64
2022-11-18T12:52:29.866Z,64.98
2022-11-18T12:55:26.028Z,64.68
2022-11-18T12:58:23.419Z,64.61
2022-11-18T13:01:12.459Z,64.69
2022-11-18T13:04:07.669Z,64.74
2022-11-18T13:06:56.342Z,64.77
2022-11-18T13:09:44.600Z,64.78
2022-11-18T13:12:32.508Z,64.81
2022-11-18T13:15:39.293Z,64.79
2022-11-18T13:18:27.314Z,64.88
2022-11-18T13:21:38.887Z,65.10
2022-11-18T13:24:26.318Z,65.28
2022-11-18T13:27:22.008Z,65.31
2022-11-18T13:30:13.547Z,65.32
2022-11-18T13:33:00.999Z,65.25
2022-11-18T13:35:48.482Z,65.48
2022-11-18T13:38:35.822Z,65.37
2022-11-18T13:41:24.738Z,65.14
2022-11-18T13:44:12.862Z,65.26
2022-11-18T13:47:01.896Z,65.33
2022-11-18T13:50:16.903Z,65.16
2022-11-18T13:53:29.916Z,65.44
2022-11-18T13:56:23.310Z,65.05
2022-11-18T13:59:24.213Z,65.32
2022-11-18T14:02:13.468Z,65.45
2022-11-18T14:05:01.485Z,65.53
2022-11-18T14:07:59.336Z,65.31
2022-11-18T14:10:47.335Z,65.17
2022-11-18T14:13:36.753Z,65.23
2022-11-18T14:16:24.133Z,65.36
2022-11-18T14:19:29.079Z,65.28
2022-11-18T14:22:21.262Z,65.49
2022-11-18T14:25:14.934Z,65.30
2022-11-18T14:28:19.113Z,65.39
2022-11-18T14:31:22.333Z,65.46
2022-11-18T14:34:18.124Z,65.32
2022-11-18T14:37:10.403Z,65.41
2022-11-18T14:39:58.576Z,65.40
2022-11-18T14:42:46.338Z,65.40
2022-11-18T14:45:35.045Z,65.41
2022-11-18T14:48:27.088Z,65.17
2022-11-18T14:51:17.511Z,65.31
2022-11-18T14:54:07.473Z,65.06
2022-11-18T14:56:57.366Z,65.24
2022-11-18T14:59:45.503Z,65.30
2022-11-18T15:02:33.231Z,65.27
2022-11-18T15:05:20.839Z,65.21
2022-11-18T15:08:08.783Z,65.05
2022-11-18T15:10:56.600Z,65.16
2022-11-18T15:13:44.530Z,65.40
2022-11-18T15:16:33.320Z,65.07
2022-11-18T15:19:21.034Z,65.40
2022-11-18T15:22:08.733Z,65.59
2022-11-18T15:24:59.991Z,65.62
2022-11-18T15:27:47.835Z,65.54
2022-11-18T15:30:35.713Z,65.51
2022-11-18T15:33:23.407Z,65.74
2022-11-18T15:36:15.258Z,65.57
2022-11-18T15:39:02.892Z,65.57
2022-11-18T15:41:50.631Z,65.40
2022-11-18T15:44:38.459Z,65.13
2022-11-18T15:47:26.411Z,65.47
2022-11-18T15:50:21.395Z,65.57
2022-11-18T15:53:09.213Z,65.29
2022-11-18T15:56:15.744Z,65.40
2022-11-18T15:59:05.401Z,65.73
2022-11-18T16:01:55.454Z,65.70
2022-11-18T16:04:43.284Z,65.37
2022-11-18T16:07:31.041Z,65.36
2022-11-18T16:10:37.627Z,65.33
2022-11-18T16:13:27.770Z,65.64
2022-11-18T16:16:22.500Z,65.75
2022-11-18T16:19:11.648Z,65.65
2022-11-18T16:22:00.236Z,65.70
2022-11-18T16:24:48.613Z,65.68
2022-11-18T16:27:36.671Z,65.50
2022-11-18T16:30:42.871Z,65.55
2022-11-18T16:33:30.522Z,65.72
2022-11-18T16:36:20.370Z,65.66
2022-11-18T16:39:12.903Z,65.58
2022-11-18T16:42:07.911Z,65.71
2022-11-18T16:44:56.592Z,65.72
2022-11-18T16:47:46.745Z,65.78
2022-11-18T16:50:34.428Z,65.89
2022-11-18T16:53:22.247Z,65.67
2022-11-18T16:56:09.806Z,65.68
2022-11-18T16:59:01.600Z,65.98
2022-11-18T17:01:53.357Z,65.92
2022-11-18T17:04:41.427Z,65.74
2022-11-18T17:07:35.407Z,65.58
2022-11-18T17:10:25.876Z,65.91
2022-11-18T17:13:13.490Z,65.88
2022-11-18T17:16:05.077Z,66.00
2022-11-18T17:18:55.778Z,65.75
2022-11-18T17:21:43.981Z,65.69
2022-11-18T17:24:31.467Z,65.91
2022-11-18T17:27:19.479Z,65.84
2022-11-18T17:30:07.670Z,66.10
2022-11-18T17:32:55.275Z,66.02
2022-11-18T17:35:45.564Z,66.21
2022-11-18T17:38:36.980Z,66.10
2022-11-18T17:41:44.119Z,66.08
2022-11-18T17:44:31.629Z,66.08
2022-11-18T17:47:19.586Z,66.14
2022-11-18T17:50:07.445Z,66.22
2022-11-18T17:52:55.000Z,66.21
2022-11-18T17:55:42.578Z,66.17
2022-11-18T17:58:30.178Z,65.99
2022-11-18T18:01:18.948Z,66.00
2022-11-18T18:04:06.663Z,66.11
2022-11-18T18:06:55.104Z,65.95
2022-11-18T18:09:43.141Z,65.82
2022-11-18T18:12:49.399Z,65.82
2022-11-18T18:15:37.618Z,66.00
2022-11-18T18:18:27.691Z,65.93
2022-11-18T18:21:17.965Z,65.96
2022-11-18T18:24:06.119Z,66.10
2022-11-18T18:26:53.887Z,66.16
2022-11-18T18:29:41.681Z,66.18
2022-11-18T18:32:29.586Z,66.03
2022-11-18T18:35:17.018Z,66.06
2022-11-18T18:38:04.565Z,66.16
2022-11-18T18:40:52.683Z,66.20
2022-11-18T18:43:40.219Z,66.19
2022-11-18T18:46:32.444Z,66.10
2022-11-18T18:49:22.231Z,66.24
2022-11-18T18:52:10.742Z,66.38
2022-11-18T18:54:58.381Z,66.46
2022-11-18T18:57:46.064Z,66.43
2022-11-18T19:00:33.634Z,66.41
2022-11-18T19:03:21.333Z,66.46
2022-11-18T19:06:47.797Z,66.21
2022-11-18T19:09:26.060Z,66.26
2022-11-18T19:12:32.448Z,66.32
2022-11-18T19:15:20.268Z,66.42
2022-11-18T19:18:08.181Z,66.21
2022-11-18T19:20:55.722Z,66.13
2022-11-18T19:23:45.925Z,66.41
2022-11-18T19:26:33.517Z,66.45
2022-11-18T19:29:24.517Z,66.49
2022-11-18T19:32:13.831Z,66.66
2022-11-18T19:35:01.331Z,66.46
2022-11-18T19:37:48.819Z,66.57
2022-11-18T19:40:36.226Z,66.56
2022-11-18T19:43:23.862Z,66.43
2022-11-18T19:46:11.501Z,66.46
2022-11-18T19:48:59.089Z,66.61
2022-11-18T19:51:49.617Z,66.75
2022-11-18T19:54:36.970Z,66.55
2022-11-18T19:57:24.900Z,66.63
2022-11-18T20:00:12.484Z,66.71
2022-11-18T20:03:00.809Z,66.97
2022-11-18T20:05:55.188Z,66.91
2022-11-18T20:08:43.358Z,67.04
2022-11-18T20:11:30.738Z,67.04
2022-11-18T20:14:18.064Z,67.13
2022-11-18T20:17:05.561Z,67.12
2022-11-18T20:19:52.915Z,67.33
2022-11-18T20:22:40.294Z,67.35
2022-11-18T20:25:27.806Z,67.31
2022-11-18T20:28:15.291Z,67.35
2022-11-18T20:31:03.624Z,67.40
2022-11-18T20:33:52.344Z,67.35
2022-11-18T20:36:40.177Z,67.33
2022-11-18T20:39:28.693Z,67.51
2022-11-18T20:42:34.949Z,67.54
2022-11-18T20:45:22.384Z,67.52
2022-11-18T20:48:11.129Z,67.28
2022-11-18T20:51:02.265Z,67.39
2022-11-18T20:53:50.474Z,67.37
2022-11-18T20:56:38.054Z,67.53
2022-11-18T20:59:25.658Z,67.50
2022-11-18T21:02:13.036Z,67.48
2022-11-18T21:05:00.494Z,67.36
2022-11-18T21:07:49.210Z,67.60
2022-11-18T21:10:36.928Z,67.48
2022-11-18T21:13:43.048Z,67.56
2022-11-18T21:16:30.469Z,67.42
2022-11-18T21:19:18.280Z,67.50
2022-11-18T21:22:05.990Z,67.60
2022-11-18T21:24:53.468Z,67.60
2022-11-18T21:27:41.612Z,67.67
2022-11-18T21:30:28.960Z,67.76
2022-11-18T21:33:16.371Z,67.53
2022-11-18T21:36:03.780Z,67.62
2022-11-18T21:38:51.273Z,67.85
2022-11-18T21:41:39.310Z,67.78
2022-11-18T21:44:28.350Z,67.63
2022-11-18T21:47:16.005Z,67.45
2022-11-18T21:50:03.449Z,67.23
2022-11-18T21:52:51.115Z,67.23
2022-11-18T21:55:38.545Z,67.06
2022-11-18T21:58:25.881Z,66.92
2022-11-18T22:01:17.772Z,67.01
2022-11-18T22:04:05.455Z,67.11
2022-11-18T22:06:52.821Z,67.09
2022-11-18T22:09:40.187Z,67.12
2022-11-18T22:12:27.637Z,67.26
2022-11-18T22:15:15.128Z,67.21
2022-11-18T22:18:02.505Z,67.29
2022-11-18T22:20:49.802Z,67.44
2022-11-18T22:23:37.258Z,67.32
2022-11-18T22:26:24.697Z,67.48
2022-11-18T22:29:12.114Z,67.50
2022-11-18T22:31:59.538Z,67.37
2022-11-18T22:34:51.629Z,67.41
2022-11-18T22:37:39.450Z,67.37
2022-11-18T22:40:26.868Z,67.35
2022-11-18T22:43:14.259Z,67.37
2022-11-18T22:46:06.697Z,67.14
2022-11-18T22:48:55.642Z,67.25
2022-11-18T22:51:43.065Z,67.19
2022-11-18T22:54:38.930Z,67.21
2022-11-18T22:57:27.148Z,67.19
2022-11-18T23:00:15.745Z,67.13
2022-11-18T23:03:03.143Z,67.29
2022-11-18T23:05:50.538Z,67.31
2022-11-18T23:08:39.126Z,67.11
2022-11-18T23:11:45.202Z,67.35
2022-11-18T23:14:32.693Z,67.24
2022-11-18T23:17:20.170Z,67.41
2022-11-18T23:20:08.167Z,67.51
2022-11-18T23:22:55.586Z,67.52
2022-11-18T23:25:42.974Z,67.64
2022-11-18T23:28:30.692Z,67.67
2022-11-18T23:31:22.381Z,67.34
2022-11-18T23:34:11.894Z,67.53
2022-11-18T23:36:59.375Z,67.45
2022-11-18T23:39:46.694Z,67.44
2022-11-18T23:42:34.025Z,67.48
2022-11-18T23:45:21.472Z,67.46
2022-11-18T23:48:08.815Z,67.42
2022-11-18T23:51:06.654Z,67.49
2022-11-18T23:53:55.138Z,67.52
2022-11-18T23:56:42.538Z,67.43
2022-11-18T23:59:29.941Z,67.41
